Time;durP1;ratioP1;P1;durP2;ratioP2;P2;SDS_P1;SDS_P2;PMS_P1;PMS_P2;Temp;Humidity;BMP_temperature;BMP_pressure;BME280_temperature;BME280_humidity;BME280_pressure;Samples;Min_cycle;Max_cycle;Signal;HPM_P1;HPM_P2
2021/09/22 00:01:01;;;;;;;7.72;4.50;;;;;;;17.15;65.45;101968.16;4935018;29;20046;-93
2021/09/22 00:03:26;;;;;;;9.10;4.30;;;;;;;17.01;65.54;101964.66;4936146;29;20031;-95
2021/09/22 00:05:52;;;;;;;10.75;4.45;;;;;;;16.90;65.97;101964.56;4936018;29;20103;-94
2021/09/22 00:08:18;;;;;;;9.23;4.88;;;;;;;16.94;65.57;101971.38;4934083;28;20055;-93
2021/09/22 00:10:43;;;;;;;7.70;4.55;;;;;;;17.11;65.01;101970.16;4934835;29;20070;-94
2021/09/22 00:13:09;;;;;;;12.20;5.28;;;;;;;17.08;65.95;101961.56;4935874;29;20035;-94
2021/09/22 00:15:35;;;;;;;7.95;5.32;;;;;;;16.77;67.13;101953.09;4935076;29;20028;-95
2021/09/22 00:18:01;;;;;;;11.05;5.57;;;;;;;16.63;67.25;101959.34;4935941;29;20537;-95
2021/09/22 00:20:26;;;;;;;8.20;5.15;;;;;;;16.62;67.28;101962.94;4935842;29;20110;-93
2021/09/22 00:22:55;;;;;;;8.55;4.47;;;;;;;16.62;67.37;101969.09;4934516;29;20031;-94
2021/09/22 00:25:21;;;;;;;10.85;5.28;;;;;;;16.62;67.64;101968.25;4934314;29;20463;-93
2021/09/22 00:27:47;;;;;;;7.53;4.75;;;;;;;16.59;67.72;101973.78;4934557;29;20090;-94
2021/09/22 00:30:13;;;;;;;6.93;4.40;;;;;;;16.52;67.99;101961.88;4935567;29;20031;-94
2021/09/22 00:32:39;;;;;;;9.35;4.57;;;;;;;16.53;67.66;101969.75;4935716;29;20024;-94
2021/09/22 00:35:06;;;;;;;8.40;3.88;;;;;;;16.53;67.95;101971.53;4935623;29;20054;-93
2021/09/22 00:37:31;;;;;;;6.07;3.25;;;;;;;16.53;67.69;101968.88;4935099;29;20023;-94
2021/09/22 00:39:57;;;;;;;8.80;4.35;;;;;;;16.52;67.68;101968.03;4934322;29;20038;-93
2021/09/22 00:42:22;;;;;;;8.18;3.80;;;;;;;16.38;68.21;101960.19;4935707;29;20031;-93
2021/09/22 00:44:54;;;;;;;6.22;3.95;;;;;;;16.41;67.92;101959.94;4933980;29;20043;-94
2021/09/22 00:47:19;;;;;;;9.38;3.92;;;;;;;16.34;67.92;101953.38;4934018;29;20040;-94
2021/09/22 00:49:45;;;;;;;7.45;4.10;;;;;;;16.33;67.97;101959.63;4935133;29;20038;-94
2021/09/22 00:52:15;;;;;;;7.00;3.65;;;;;;;16.41;67.68;101959.94;4933822;29;20094;-93
2021/09/22 00:54:41;;;;;;;7.90;3.28;;;;;;;16.51;67.58;101961.03;4934003;29;20029;-93
2021/09/22 00:57:07;;;;;;;9.18;4.00;;;;;;;16.48;66.87;101960.41;4935168;29;20111;-94
2021/09/22 00:59:33;;;;;;;8.35;3.83;;;;;;;16.46;67.28;101949.91;4935431;29;20024;-93
2021/09/22 01:01:59;;;;;;;7.03;3.50;;;;;;;16.33;67.68;101951.69;4934005;28;20028;-93
2021/09/22 01:04:24;;;;;;;6.97;3.97;;;;;;;16.21;67.97;101946.28;4934544;29;20027;-93
2021/09/22 01:06:50;;;;;;;6.40;4.30;;;;;;;16.44;67.53;101947.34;4935031;29;20498;-93
2021/09/22 01:09:16;;;;;;;7.85;3.97;;;;;;;16.58;66.97;101953.50;4933483;28;20490;-93
2021/09/22 01:11:42;;;;;;;7.35;4.07;;;;;;;16.57;66.86;101957.97;4935030;29;20038;-93
2021/09/22 01:14:08;;;;;;;7.55;4.45;;;;;;;16.51;66.95;101961.03;4935009;29;20449;-93
2021/09/22 01:16:43;;;;;;;8.60;4.82;;;;;;;16.41;67.44;101955.53;4933717;28;20510;-92
2021/09/22 01:19:09;;;;;;;8.23;4.57;;;;;;;16.15;68.18;101959.94;4935093;29;20106;-93
2021/09/22 01:21:34;;;;;;;8.75;4.97;;;;;;;16.05;69.11;101950.88;4934528;29;20106;-93
2021/09/22 01:24:00;;;;;;;11.13;4.88;;;;;;;16.25;67.83;101950.41;4934215;29;20036;-96
2021/09/22 01:26:25;;;;;;;7.97;4.78;;;;;;;16.26;67.81;101952.09;4934797;29;20491;-93
2021/09/22 01:28:50;;;;;;;8.10;4.38;;;;;;;16.10;68.25;101946.13;4934656;29;20028;-93
2021/09/22 01:31:16;;;;;;;10.65;5.03;;;;;;;16.10;68.19;101940.84;4934853;29;20394;-92
2021/09/22 01:33:43;;;;;;;9.57;4.85;;;;;;;16.44;67.27;101949.16;4933526;29;20086;-92
2021/09/22 01:36:13;;;;;;;9.63;4.78;;;;;;;16.52;66.77;101936.22;4934597;29;20024;-93
2021/09/22 01:38:39;;;;;;;7.63;4.90;;;;;;;16.54;66.54;101938.75;4934285;29;20030;-93
2021/09/22 01:41:07;;;;;;;7.32;4.82;;;;;;;16.56;66.86;101942.16;4933524;29;20114;-92
2021/09/22 01:43:35;;;;;;;6.70;4.45;;;;;;;16.55;66.77;101933.38;4934483;29;20106;-92
2021/09/22 01:46:02;;;;;;;9.07;5.38;;;;;;;16.46;66.96;101929.53;4934599;29;20486;-93
2021/09/22 01:48:27;;;;;;;9.55;5.57;;;;;;;16.45;66.91;101927.84;4934379;29;20032;-92
2021/09/22 01:50:54;;;;;;;7.70;4.70;;;;;;;16.43;67.06;101920.97;4933004;29;20042;-93
2021/09/22 01:53:20;;;;;;;9.75;5.05;;;;;;;16.42;66.99;101913.94;4934541;29;20031;-93
2021/09/22 01:55:46;;;;;;;6.22;4.47;;;;;;;16.43;67.21;101918.31;4933127;29;20083;-92
2021/09/22 01:58:13;;;;;;;9.05;5.15;;;;;;;16.45;67.21;101919.88;4934490;29;20393;-92
2021/09/22 02:00:39;;;;;;;10.55;5.13;;;;;;;16.44;67.16;101918.19;4934910;29;20028;-92
2021/09/22 02:03:05;;;;;;;7.43;5.60;;;;;;;16.43;67.58;101905.06;4934088;29;20637;-93
2021/09/22 02:05:30;;;;;;;12.65;6.07;;;;;;;16.49;67.35;101909.94;4934217;29;20279;-92
2021/09/22 02:07:56;;;;;;;11.30;6.45;;;;;;;16.50;67.39;101910.78;4934237;29;20028;-92
2021/09/22 02:10:21;;;;;;;10.25;5.97;;;;;;;16.50;67.53;101898.34;4934333;29;20071;-92
2021/09/22 02:12:47;;;;;;;8.95;6.20;;;;;;;16.46;67.77;101886.28;4934355;29;20020;-92
2021/09/22 02:15:12;;;;;;;10.43;6.50;;;;;;;16.58;68.01;101897.81;4935599;29;20020;-91
2021/09/22 02:17:38;;;;;;;9.05;6.10;;;;;;;16.62;68.26;101894.84;4938841;29;20035;-93
2021/09/22 02:20:05;;;;;;;9.43;6.00;;;;;;;16.72;68.33;101905.66;4938042;28;20070;-94
2021/09/22 02:22:31;;;;;;;8.60;6.32;;;;;;;16.73;68.78;101890.63;4940292;29;20028;-93
2021/09/22 02:24:56;;;;;;;9.05;6.00;;;;;;;16.84;68.89;101898.66;4940422;29;20043;-93
2021/09/22 02:27:21;;;;;;;9.50;5.95;;;;;;;16.89;68.99;101899.22;4939373;29;20020;-92
2021/09/22 02:29:47;;;;;;;11.25;6.78;;;;;;;16.92;68.90;101896.31;4939069;28;20614;-92
2021/09/22 02:32:13;;;;;;;12.15;6.70;;;;;;;16.94;68.60;101899.75;4939211;28;20179;-93
2021/09/22 02:34:40;;;;;;;8.55;6.15;;;;;;;16.95;68.35;101888.16;4948610;29;20032;-90
2021/09/22 02:37:06;;;;;;;10.38;5.93;;;;;;;17.00;68.82;101888.69;4951246;29;20059;-89
2021/09/22 02:39:32;;;;;;;11.23;6.28;;;;;;;17.09;68.69;101894.28;4953609;29;20031;-90
2021/09/22 02:41:58;;;;;;;10.45;5.93;;;;;;;17.12;68.91;101886.97;4953482;29;20008;-91
2021/09/22 02:44:23;;;;;;;7.30;5.10;;;;;;;17.13;68.68;101883.31;4951892;28;20070;-90
2021/09/22 02:46:50;;;;;;;10.68;5.90;;;;;;;17.17;68.64;101882.16;4952570;29;20024;-89
2021/09/22 02:49:16;;;;;;;9.40;6.05;;;;;;;17.24;68.58;101880.75;4950542;29;20034;-90
2021/09/22 02:51:41;;;;;;;10.00;5.90;;;;;;;17.22;68.92;101881.84;4929677;29;20115;-90
2021/09/22 02:54:07;;;;;;;8.10;5.35;;;;;;;17.25;69.01;101871.81;4931998;29;20036;-90
2021/09/22 02:56:32;;;;;;;10.68;6.75;;;;;;;17.20;68.65;101873.09;4931448;29;20027;-89
2021/09/22 02:58:57;;;;;;;9.13;5.63;;;;;;;17.18;68.38;101865.28;4927628;29;20040;-89
2021/09/22 03:01:23;;;;;;;11.88;6.93;;;;;;;17.17;68.84;101868.03;4928181;29;20028;-89
2021/09/22 03:03:48;;;;;;;10.05;6.57;;;;;;;17.19;68.61;101863.47;4945269;29;20027;-89
2021/09/22 03:06:14;;;;;;;8.93;5.72;;;;;;;17.19;68.36;101866.94;4951959;29;20519;-90
2021/09/22 03:08:39;;;;;;;10.77;7.20;;;;;;;17.15;68.83;101859.34;4951424;29;20024;-88
2021/09/22 03:11:08;;;;;;;10.75;6.88;;;;;;;17.18;68.80;101857.31;4949684;29;20043;-90
2021/09/22 03:13:34;;;;;;;11.32;7.38;;;;;;;17.06;68.97;101839.59;4947297;29;20028;-90
2021/09/22 03:16:00;;;;;;;10.50;7.25;;;;;;;17.19;69.45;101860.81;4952524;29;20027;-91
2021/09/22 03:18:26;;;;;;;13.77;7.30;;;;;;;17.21;69.54;101850.94;4952612;29;20498;-91
2021/09/22 03:20:52;;;;;;;11.70;6.43;;;;;;;17.25;69.62;101860.34;4951210;29;20036;-90
2021/09/22 03:23:17;;;;;;;11.15;7.32;;;;;;;17.22;69.74;101847.31;4948075;29;20027;-90
2021/09/22 03:25:43;;;;;;;12.48;8.27;;;;;;;17.21;69.73;101853.56;4946387;29;20020;-89
2021/09/22 03:28:08;;;;;;;12.32;7.50;;;;;;;17.15;69.78;101838.94;4938774;29;20028;-92
2021/09/22 03:30:34;;;;;;;12.60;7.85;;;;;;;17.15;69.51;101854.03;4937506;29;20038;-92
2021/09/22 03:32:59;;;;;;;11.52;7.57;;;;;;;17.15;69.48;101856.69;4936953;29;20036;-91
2021/09/22 03:35:25;;;;;;;11.38;6.72;;;;;;;17.14;69.08;101842.56;4936963;29;20466;-91
2021/09/22 03:37:50;;;;;;;10.18;7.25;;;;;;;17.11;69.08;101842.78;4936952;29;20027;-91
2021/09/22 03:40:16;;;;;;;11.32;7.55;;;;;;;17.15;69.08;101848.72;4935617;29;20043;-91
2021/09/22 03:42:41;;;;;;;17.52;8.18;;;;;;;17.13;69.41;101853.28;4929334;29;20031;-91
2021/09/22 03:45:07;;;;;;;10.10;7.13;;;;;;;17.16;69.34;101850.41;4936872;29;20035;-91
2021/09/22 03:47:32;;;;;;;13.82;8.02;;;;;;;17.10;70.16;101845.53;4935020;29;20054;-91
2021/09/22 03:49:58;;;;;;;11.55;8.35;;;;;;;17.13;69.93;101845.34;4935418;29;20401;-92
2021/09/22 03:52:24;;;;;;;14.88;8.18;;;;;;;17.18;70.14;101845.81;4936715;29;20027;-92
2021/09/22 03:54:49;;;;;;;11.43;7.93;;;;;;;17.21;70.49;101843.81;4936783;29;20039;-92
2021/09/22 03:57:15;;;;;;;13.55;8.38;;;;;;;17.28;70.55;101841.56;4936909;29;20486;-92
2021/09/22 03:59:40;;;;;;;11.90;8.45;;;;;;;17.35;70.77;101848.09;4936531;29;20086;-91
2021/09/22 04:02:06;;;;;;;12.35;8.23;;;;;;;17.37;70.71;101840.88;4936196;29;20038;-92
2021/09/22 04:04:32;;;;;;;10.98;8.05;;;;;;;17.39;70.84;101844.25;4936241;29;20016;-91
2021/09/22 04:06:58;;;;;;;14.77;7.72;;;;;;;17.41;70.87;101836.19;4936499;29;20052;-91
2021/09/22 04:09:23;;;;;;;11.40;8.18;;;;;;;17.35;71.61;101850.75;4936330;29;20478;-91
2021/09/22 04:11:49;;;;;;;10.82;7.28;;;;;;;17.18;72.25;101837.88;4936586;29;20118;-91
2021/09/22 04:14:14;;;;;;;10.02;6.88;;;;;;;17.28;72.19;101849.53;4936539;29;20174;-91
2021/09/22 04:16:40;;;;;;;15.93;7.72;;;;;;;17.27;72.42;101842.50;4936459;29;20111;-91
2021/09/22 04:19:05;;;;;;;19.15;9.63;;;;;;;17.24;73.77;101840.94;4936182;29;20412;-92
2021/09/22 04:21:30;;;;;;;20.15;10.23;;;;;;;17.29;74.91;101837.94;4936476;29;20111;-91
2021/09/22 04:23:57;;;;;;;18.88;12.27;;;;;;;17.62;73.78;101842.53;4936214;29;20486;-91
2021/09/22 04:26:23;;;;;;;27.08;13.85;;;;;;;17.80;74.54;101856.25;4936366;29;20174;-91
2021/09/22 04:28:48;;;;;;;25.85;15.73;;;;;;;17.96;73.79;101848.00;4936057;29;20529;-91
2021/09/22 04:31:13;;;;;;;27.25;17.60;;;;;;;17.96;75.05;101852.47;4936084;29;20028;-91
2021/09/22 04:33:39;;;;;;;25.45;16.35;;;;;;;18.06;74.73;101857.94;4935975;29;20031;-91
2021/09/22 04:36:05;;;;;;;29.95;17.90;;;;;;;18.09;74.70;101860.34;4933923;29;20028;-91
2021/09/22 04:38:30;;;;;;;27.02;17.33;;;;;;;18.06;74.90;101853.44;4934398;29;20020;-91
2021/09/22 04:40:55;;;;;;;30.77;18.65;;;;;;;18.04;75.16;101856.22;4935523;29;20038;-91
2021/09/22 04:43:21;;;;;;;29.38;17.75;;;;;;;18.04;75.24;101852.72;4935465;29;20039;-91
2021/09/22 04:45:47;;;;;;;25.67;16.27;;;;;;;18.07;75.35;101854.28;4935391;29;20027;-91
2021/09/22 04:48:13;;;;;;;27.48;16.08;;;;;;;18.03;75.44;101851.88;4935010;29;20036;-91
2021/09/22 04:50:39;;;;;;;36.67;18.85;;;;;;;17.99;75.83;101854.88;4935533;29;20038;-91
2021/09/22 04:53:05;;;;;;;30.23;16.65;;;;;;;17.97;76.51;101859.47;4935202;29;20391;-92
2021/09/22 04:55:30;;;;;;;25.52;15.00;;;;;;;18.03;75.96;101861.69;4935110;29;20083;-91
2021/09/22 04:57:55;;;;;;;21.55;13.82;;;;;;;17.95;76.10;101848.09;4935218;29;20032;-91
2021/09/22 05:00:21;;;;;;;25.40;15.20;;;;;;;17.84;76.53;101847.13;4935176;29;20031;-91
2021/09/22 05:02:47;;;;;;;26.20;14.70;;;;;;;17.75;77.92;101852.25;4934576;29;20032;-91
2021/09/22 05:05:13;;;;;;;22.00;14.13;;;;;;;18.05;76.69;101854.44;4935126;29;20038;-92
2021/09/22 05:07:39;;;;;;;28.77;14.82;;;;;;;18.15;75.49;101866.03;4935028;29;20023;-91
2021/09/22 05:10:05;;;;;;;27.15;14.50;;;;;;;18.11;75.08;101859.28;4934849;29;20091;-92
2021/09/22 05:12:30;;;;;;;26.27;14.85;;;;;;;18.18;75.00;101847.19;4934566;29;20027;-91
2021/09/22 05:14:56;;;;;;;25.95;14.02;;;;;;;18.16;74.61;101845.63;4934334;29;20501;-90
2021/09/22 05:17:21;;;;;;;23.88;13.68;;;;;;;18.21;74.87;101852.28;4934977;29;20031;-91
2021/09/22 05:19:46;;;;;;;23.15;13.50;;;;;;;18.24;74.53;101851.19;4934852;29;20031;-91
2021/09/22 05:22:15;;;;;;;28.02;14.73;;;;;;;18.20;74.11;101847.06;4934920;29;20034;-91
2021/09/22 05:24:44;;;;;;;31.88;14.20;;;;;;;18.21;74.12;101849.63;4936201;29;20031;-90
2021/09/22 05:27:09;;;;;;;33.47;13.82;;;;;;;18.17;73.68;101849.97;4937826;29;20099;-90
2021/09/22 05:29:36;;;;;;;33.55;14.82;;;;;;;18.13;74.04;101846.72;4934553;29;20127;-91
2021/09/22 05:32:02;;;;;;;31.77;14.68;;;;;;;18.11;74.00;101853.97;4934659;29;20038;-90
2021/09/22 05:34:28;;;;;;;34.85;15.80;;;;;;;18.10;73.83;101846.09;4934042;29;20505;-91
2021/09/22 05:36:53;;;;;;;33.25;15.30;;;;;;;18.11;73.56;101850.44;4935512;29;20114;-91
2021/09/22 05:39:18;;;;;;;41.50;14.68;;;;;;;18.07;73.53;101852.50;4920618;29;20036;-91
2021/09/22 05:41:44;;;;;;;33.58;15.30;;;;;;;18.01;73.63;101847.66;4915980;29;20024;-92
2021/09/22 05:44:09;;;;;;;30.92;15.38;;;;;;;18.01;73.72;101843.19;4915019;29;20032;-92
2021/09/22 05:46:36;;;;;;;33.15;14.05;;;;;;;18.06;73.90;101840.16;4924529;29;20203;-90
2021/09/22 05:49:03;;;;;;;28.45;14.52;;;;;;;18.05;73.50;101846.47;4921996;29;20028;-93
2021/09/22 05:51:28;;;;;;;30.63;14.68;;;;;;;18.03;73.51;101851.03;4937875;29;20028;-90
2021/09/22 05:53:54;;;;;;;34.75;14.82;;;;;;;18.02;73.25;101849.34;4938092;29;20046;-93
2021/09/22 05:56:19;;;;;;;39.05;14.95;;;;;;;17.92;73.30;101851.00;4939510;29;20497;-92
2021/09/22 05:58:44;;;;;;;38.83;14.32;;;;;;;17.80;74.04;101853.59;4937439;29;20561;-91
2021/09/22 06:01:10;;;;;;;30.65;13.40;;;;;;;17.77;74.13;101853.84;4937432;29;20039;-91
2021/09/22 06:03:35;;;;;;;34.83;13.82;;;;;;;17.72;74.09;101844.53;4938130;29;20642;-91
2021/09/22 06:06:01;;;;;;;31.00;13.07;;;;;;;17.58;74.43;101837.59;4938017;29;20510;-91
2021/09/22 06:08:26;;;;;;;26.73;12.02;;;;;;;17.61;74.52;101834.69;4938205;29;20032;-91
2021/09/22 06:10:52;;;;;;;30.13;15.10;;;;;;;17.98;73.41;101843.41;4936480;28;20032;-91
2021/09/22 06:13:17;;;;;;;32.13;14.13;;;;;;;18.06;72.69;101839.31;4937935;29;20055;-90
2021/09/22 06:15:43;;;;;;;31.55;13.90;;;;;;;18.04;72.86;101836.78;4937889;29;20031;-90
2021/09/22 06:18:08;;;;;;;28.33;13.95;;;;;;;18.04;72.99;101842.09;4936166;29;20375;-90
2021/09/22 06:20:34;;;;;;;37.03;13.68;;;;;;;18.01;72.88;101837.88;4933029;29;20072;-91
2021/09/22 06:22:59;;;;;;;30.25;14.10;;;;;;;18.01;72.71;101832.56;4933413;29;20023;-90
2021/09/22 06:25:25;;;;;;;37.83;15.52;;;;;;;18.08;72.76;101846.19;4931899;29;20028;-91
2021/09/22 06:27:50;;;;;;;36.97;17.65;;;;;;;18.06;72.56;101840.16;4923935;29;20020;-91
2021/09/22 06:30:16;;;;;;;37.13;17.38;;;;;;;18.06;72.54;101845.47;4933164;29;20035;-92
2021/09/22 06:32:42;;;;;;;36.65;17.08;;;;;;;18.04;73.00;101845.59;4936699;29;20031;-92
2021/09/22 06:35:09;;;;;;;36.30;17.83;;;;;;;18.05;72.76;101843.81;4936457;29;20078;-92
2021/09/22 06:37:36;;;;;;;31.55;17.85;;;;;;;18.04;73.04;101844.75;4936887;29;20548;-91
2021/09/22 06:40:04;;;;;;;26.38;17.20;;;;;;;18.08;72.90;101854.19;4936078;29;20070;-92
2021/09/22 06:42:30;;;;;;;31.80;17.05;;;;;;;18.06;73.14;101849.97;4937233;29;20098;-92
2021/09/22 06:44:55;;;;;;;28.38;15.60;;;;;;;18.09;73.01;101855.88;4936484;29;20356;-93
2021/09/22 06:47:21;;;;;;;24.00;15.73;;;;;;;18.17;73.02;101864.13;4936125;28;20031;-92
2021/09/22 06:49:46;;;;;;;23.95;15.18;;;;;;;18.20;72.89;101863.84;4937421;29;20302;-91
2021/09/22 06:52:12;;;;;;;22.52;16.02;;;;;;;18.27;72.72;101863.41;4936970;29;20059;-92
2021/09/22 06:54:37;;;;;;;32.00;18.85;;;;;;;18.31;72.55;101871.03;4935820;29;20027;-92
2021/09/22 06:57:03;;;;;;;30.02;18.70;;;;;;;18.31;72.17;101875.50;4935262;29;20024;-92
2021/09/22 06:59:28;;;;;;;33.28;18.45;;;;;;;18.32;72.31;101878.00;4935568;29;20094;-91
2021/09/22 07:01:54;;;;;;;30.90;17.45;;;;;;;18.37;72.18;101870.53;4934937;29;20034;-91
2021/09/22 07:04:20;;;;;;;31.73;17.35;;;;;;;18.37;72.29;101861.72;4936403;29;20031;-92
2021/09/22 07:06:45;;;;;;;26.73;16.52;;;;;;;18.50;72.25;101864.25;4936585;29;20075;-93
2021/09/22 07:09:11;;;;;;;30.50;17.77;;;;;;;18.55;71.50;101860.28;4936076;29;20130;-90
2021/09/22 07:11:36;;;;;;;28.45;16.77;;;;;;;18.54;71.58;101869.25;4935033;29;20039;-91
2021/09/22 07:14:02;;;;;;;26.50;15.82;;;;;;;18.76;70.97;101870.16;4936078;29;20036;-91
2021/09/22 07:16:28;;;;;;;30.63;15.55;;;;;;;18.85;71.05;101866.81;4934781;29;20114;-92
2021/09/22 07:18:54;;;;;;;22.25;14.05;;;;;;;19.09;69.65;101861.34;4936049;29;20122;-90
2021/09/22 07:21:19;;;;;;;23.70;14.18;;;;;;;19.19;69.61;101853.44;4936045;29;20046;-90
2021/09/22 07:23:45;;;;;;;21.17;13.02;;;;;;;19.34;69.01;101870.84;4937956;29;20478;-90
2021/09/22 07:26:11;;;;;;;19.70;12.55;;;;;;;19.28;67.70;101860.69;4935190;29;20514;-91
2021/09/22 07:28:37;;;;;;;22.50;13.65;;;;;;;19.28;67.88;101865.19;4935673;29;20028;-91
2021/09/22 07:31:03;;;;;;;21.15;12.85;;;;;;;19.29;67.90;101867.69;4935729;29;20114;-90
2021/09/22 07:33:29;;;;;;;24.75;15.65;;;;;;;19.33;67.89;101874.50;4934486;29;20385;-91
2021/09/22 07:35:56;;;;;;;26.50;16.60;;;;;;;19.32;68.28;101866.63;4935614;29;20031;-91
2021/09/22 07:38:21;;;;;;;24.08;15.13;;;;;;;19.42;68.04;101862.22;4931865;29;20168;-91
2021/09/22 07:40:47;;;;;;;28.40;15.40;;;;;;;19.49;67.57;101867.88;4933682;29;20078;-90
2021/09/22 07:43:13;;;;;;;22.75;14.73;;;;;;;19.59;67.84;101874.16;4935728;29;20032;-91
2021/09/22 07:45:39;;;;;;;27.20;14.38;;;;;;;19.67;67.30;101876.16;4936148;29;20386;-91
2021/09/22 07:48:06;;;;;;;24.67;16.55;;;;;;;19.71;67.15;101883.81;4936169;29;20024;-90
2021/09/22 07:50:32;;;;;;;21.52;14.02;;;;;;;19.85;66.75;101868.50;4936095;29;20023;-91
2021/09/22 07:52:57;;;;;;;23.42;14.55;;;;;;;19.93;66.08;101868.69;4934618;29;20036;-92
2021/09/22 07:55:23;;;;;;;25.33;15.55;;;;;;;20.07;65.39;101879.03;4935888;29;20084;-91
2021/09/22 07:57:52;;;;;;;25.17;14.27;;;;;;;20.17;65.21;101885.25;4936259;29;20106;-91
2021/09/22 08:00:19;;;;;;;19.92;13.57;;;;;;;20.23;65.01;101883.06;4935877;29;20031;-91
2021/09/22 08:02:44;;;;;;;21.33;13.68;;;;;;;20.62;64.04;101889.47;4935895;29;20033;-91
2021/09/22 08:05:10;;;;;;;21.50;13.75;;;;;;;21.81;61.94;101890.41;4935772;29;20038;-91
2021/09/22 08:07:36;;;;;;;18.70;11.73;;;;;;;22.85;58.51;101892.25;4935783;29;20035;-91
2021/09/22 08:10:01;;;;;;;19.05;13.07;;;;;;;22.92;57.00;101894.19;4934157;29;20482;-91
2021/09/22 08:12:26;;;;;;;20.63;12.57;;;;;;;23.26;55.38;101890.06;4935350;29;20541;-91
2021/09/22 08:14:52;;;;;;;22.23;13.10;;;;;;;24.05;54.57;101889.31;4935991;29;20471;-91
2021/09/22 08:17:18;;;;;;;16.08;10.98;;;;;;;25.04;52.02;101895.19;4935738;29;20102;-90
2021/09/22 08:19:44;;;;;;;16.40;11.07;;;;;;;25.79;48.29;101889.81;4935673;29;20482;-90
2021/09/22 08:22:10;;;;;;;15.80;10.52;;;;;;;26.74;48.63;101891.84;4935431;29;20035;-90
2021/09/22 08:24:37;;;;;;;17.60;10.18;;;;;;;27.39;45.36;101889.81;4934873;29;20069;-90
2021/09/22 08:27:04;;;;;;;12.85;7.65;;;;;;;27.73;45.18;101892.09;4935358;29;20056;-90
2021/09/22 08:29:30;;;;;;;15.45;8.90;;;;;;;28.54;43.83;101872.59;4935390;29;20032;-90
2021/09/22 08:31:55;;;;;;;10.95;7.32;;;;;;;28.74;42.99;101884.50;4935626;29;20030;-90
2021/09/22 08:34:21;;;;;;;14.15;8.55;;;;;;;29.33;41.25;101888.09;4935292;29;20474;-91
2021/09/22 08:36:47;;;;;;;22.75;8.27;;;;;;;29.40;40.07;101876.28;4932951;29;20299;-90
2021/09/22 08:39:13;;;;;;;9.25;4.50;;;;;;;29.91;39.24;101886.13;4930903;29;20618;-90
2021/09/22 08:41:39;;;;;;;12.25;4.72;;;;;;;29.99;38.30;101891.41;4934679;29;20028;-91
2021/09/22 08:44:05;;;;;;;11.70;4.47;;;;;;;30.30;38.51;101882.03;4935050;29;20439;-91
2021/09/22 08:46:35;;;;;;;7.00;3.63;;;;;;;30.68;37.77;101881.63;4934998;29;20047;-91
2021/09/22 08:49:02;;;;;;;7.47;3.60;;;;;;;31.40;35.85;101882.06;4935245;29;20115;-91
2021/09/22 08:51:28;;;;;;;11.02;3.65;;;;;;;30.90;36.04;101884.22;4935100;29;20032;-91
2021/09/22 08:53:54;;;;;;;7.53;3.88;;;;;;;31.73;35.64;101878.53;4934798;29;20028;-91
2021/09/22 08:56:19;;;;;;;6.25;3.50;;;;;;;31.84;33.86;101866.22;4934602;29;20500;-91
2021/09/22 08:58:45;;;;;;;7.72;3.80;;;;;;;32.18;33.73;101862.44;4934734;29;20110;-91
2021/09/22 09:01:13;;;;;;;9.73;4.60;;;;;;;32.48;33.82;101856.47;4934928;29;20630;-91
2021/09/22 09:03:42;;;;;;;6.55;3.20;;;;;;;32.72;32.99;101853.06;4934826;29;20062;-90
2021/09/22 09:06:23;;;;;;;5.78;3.33;;;;;;;33.49;32.47;101847.56;4934472;29;20059;-91
2021/09/22 09:08:51;;;;;;;8.85;3.58;;;;;;;33.42;32.03;101856.84;4930719;29;20024;-90
2021/09/22 09:11:39;;;;;;;7.85;3.85;;;;;;;34.20;31.82;101850.06;4933526;29;20040;-91
2021/09/22 09:14:08;;;;;;;7.72;4.05;;;;;;;33.81;30.80;101852.97;4932770;29;20032;-90
2021/09/22 09:16:39;;;;;;;6.32;2.92;;;;;;;33.62;31.56;101859.41;4932587;29;20030;-91
2021/09/22 09:19:14;;;;;;;;;;;;;;;34.40;30.83;101858.00;4934554;29;20034;-91
2021/09/22 09:22:05;;;;;;;8.77;3.65;;;;;;;33.96;31.28;101856.13;4933643;29;19925;-90
2021/09/22 09:24:37;;;;;;;22.58;6.40;;;;;;;33.30;31.40;101851.28;4933339;29;20039;-90
2021/09/22 09:27:06;;;;;;;60.83;7.93;;;;;;;33.21;32.11;101856.13;4933436;29;20039;-90
2021/09/22 09:29:32;;;;;;;32.83;6.75;;;;;;;33.52;31.76;101847.09;4934978;29;20031;-90
2021/09/22 09:32:11;;;;;;;6.50;3.55;;;;;;;31.97;33.24;101848.03;4928268;29;20604;-89
2021/09/22 09:34:37;;;;;;;8.48;3.40;;;;;;;32.69;34.08;101848.06;4915478;29;20137;-89
2021/09/22 09:37:02;;;;;;;7.82;4.03;;;;;;;31.70;35.08;101852.66;4926375;29;20024;-88
2021/09/22 09:39:30;;;;;;;5.60;3.53;;;;;;;30.80;35.69;101850.16;4918132;29;20372;-88
2021/09/22 09:41:57;;;;;;;9.80;4.38;;;;;;;30.21;36.70;101851.56;4917073;29;20450;-90
2021/09/22 09:44:25;;;;;;;14.52;4.47;;;;;;;31.07;34.99;101836.72;4932057;29;20040;-89
2021/09/22 09:46:53;;;;;;;9.80;4.07;;;;;;;32.22;34.05;101839.22;4933262;29;20394;-86
2021/09/22 09:49:24;;;;;;;11.13;4.05;;;;;;;31.81;33.48;101843.03;4933569;29;20032;-86
2021/09/22 09:51:55;;;;;;;41.88;6.75;;;;;;;32.14;33.88;101836.72;4931826;29;20086;-87
2021/09/22 09:54:25;;;;;;;7.57;3.58;;;;;;;32.18;33.04;101837.97;4932295;29;20032;-86
2021/09/22 09:56:56;;;;;;;10.40;3.50;;;;;;;32.87;32.28;101843.78;4929611;29;20047;-86
2021/09/22 09:59:25;;;;;;;5.53;3.10;;;;;;;33.13;31.76;101843.63;4933455;29;20031;-86
2021/09/22 10:01:53;;;;;;;5.65;3.28;;;;;;;31.41;32.66;101843.84;4933407;29;20032;-85
2021/09/22 10:04:20;;;;;;;8.23;3.40;;;;;;;31.33;34.33;101843.22;4933622;29;20027;-86
2021/09/22 10:06:47;;;;;;;7.63;3.28;;;;;;;31.03;34.53;101832.75;4933397;29;20509;-86
2021/09/22 10:09:13;;;;;;;6.82;3.33;;;;;;;32.00;33.76;101836.75;4933048;29;20032;-86
2021/09/22 10:11:41;;;;;;;5.53;2.88;;;;;;;32.35;32.90;101835.63;4933280;29;20495;-87
2021/09/22 10:14:08;;;;;;;5.20;3.28;;;;;;;32.19;33.46;101836.94;4931889;29;20044;-87
2021/09/22 10:16:35;;;;;;;5.70;3.30;;;;;;;30.94;34.85;101839.38;4933291;29;20114;-87
2021/09/22 10:19:02;;;;;;;6.25;2.85;;;;;;;30.81;35.23;101838.28;4933251;29;20036;-87
2021/09/22 10:21:30;;;;;;;4.40;2.58;;;;;;;30.32;35.31;101833.09;4932923;29;20032;-86
2021/09/22 10:23:57;;;;;;;4.93;3.55;;;;;;;30.11;34.87;101832.09;4933499;29;20094;-86
2021/09/22 10:26:24;;;;;;;6.13;3.50;;;;;;;30.39;35.14;101840.22;4932903;29;20426;-87
2021/09/22 10:28:52;;;;;;;29.63;6.78;;;;;;;30.20;36.02;101830.09;4932896;29;20026;-87
2021/09/22 10:31:34;;;;;;;7.07;3.55;;;;;;;29.14;36.99;101833.59;4927847;29;20372;-87
2021/09/22 10:34:00;;;;;;;10.90;4.32;;;;;;;29.36;37.36;101836.31;4923076;29;20027;-87
2021/09/22 10:36:38;;;;;;;4.60;3.22;;;;;;;29.26;37.44;101833.91;4926577;29;20036;-88
2021/09/22 10:39:05;;;;;;;4.20;3.15;;;;;;;28.84;37.66;101838.25;4918002;29;20028;-87
2021/09/22 10:41:37;;;;;;;7.13;3.75;;;;;;;28.53;39.21;101833.09;4935100;29;20423;-87
2021/09/22 10:44:04;;;;;;;6.00;3.55;;;;;;;27.34;39.68;101832.91;4937203;29;20036;-87
2021/09/22 10:46:30;;;;;;;6.90;3.97;;;;;;;27.00;40.81;101831.41;4936246;29;20024;-86
2021/09/22 10:48:57;;;;;;;7.00;3.30;;;;;;;27.64;40.42;101834.63;4934609;29;20118;-87
2021/09/22 10:51:47;;;;;;;4.40;3.72;;;;;;;27.85;40.51;101822.31;4935552;29;20093;-87
2021/09/22 10:54:17;;;;;;;6.30;3.88;;;;;;;27.53;39.96;101826.16;4935052;29;20030;-87
2021/09/22 10:56:47;;;;;;;7.00;3.67;;;;;;;27.42;40.47;101824.72;4936556;29;20126;-86
2021/09/22 10:59:25;;;;;;;27.98;5.22;;;;;;;26.86;41.85;101823.06;4935310;29;20035;-86
2021/09/22 11:01:51;;;;;;;18.08;5.80;;;;;;;27.00;40.88;101810.69;4935182;29;20028;-87
2021/09/22 11:04:17;;;;;;;22.70;5.88;;;;;;;26.47;41.76;101815.81;4935413;29;20039;-88
2021/09/22 11:09:13;;;;;;;10.93;4.10;;;;;;;26.73;41.15;101813.88;4934926;29;20050;-88
2021/09/22 11:11:58;;;;;;;5.38;3.53;;;;;;;26.09;42.33;101812.94;4932067;29;20479;-87
2021/09/22 11:14:27;;;;;;;5.20;3.92;;;;;;;27.42;40.98;101808.56;4931497;29;20395;-87
2021/09/22 11:16:53;;;;;;;6.40;3.88;;;;;;;28.15;38.50;101803.47;4933203;29;20038;-88